^^
Station Historical Data
 
Daily Summary for April 19, 2018 Units:  English    Metric   Both
« Previous Day
Next Day »
Daily Weekly Monthly Yearly Custom
  Current: High: Low: Average:
Temperature: 56.7 °F TemperatureF °F 54.9 °F 60.7 °F
Dew Point: 36.1 °F DewpointF °F 33.3 °F 44.2 °F
Humidity: 46% Humidity% 42% 54%
Wind Speed: 6.0mph WindSpeedMPHmph 0.0mph 3.3mph
Wind Gust: 18.0mph WindSpeedGustMPHmph - -
WindWest - - SW
Pressure: 30.33 in PressureIn in 30.13 in -
Precipitation: 0.00 in      
Historical Graphs
 
 
Tabular Data for April 19, 2018
Time Temperature Dew Point Pressure Wind Wind Speed Wind Gust Humidity Rainfall Rate (Hourly)
TemperatureF °F DewpointF °F PressureIn in Calm     Humidity% HourlyPrecipIn in
00:00 69.1 °F 50.7 °F 30.20 in Calm   1.0 mph 52% 0.00 in
00:05 68.9 °F 50.5 °F 30.21 in Calm   3.0 mph 52% 0.00 in
00:15 68.4 °F 51.1 °F 30.21 in Calm   2.0 mph 54% 0.00 in
00:25 68.4 °F 51.1 °F 30.20 in WNW 0.9 mph 8.0 mph 54% 0.00 in
00:40 68.5 °F 51.3 °F 30.19 in WSW 4.0 mph 9.0 mph 54% 0.00 in
00:50 68.5 °F 51.8 °F 30.20 in WNW 8.1 mph 10.0 mph 55% 0.00 in
00:55 68.5 °F 51.8 °F 30.20 in WNW 2.0 mph 4.0 mph 55% 0.00 in
01:00 68.4 °F 52.0 °F 30.19 in NW 4.0 mph 8.0 mph 56% 0.00 in
01:05 68.4 °F 52.5 °F 30.20 in NW 6.0 mph 15.0 mph 57% 0.00 in
01:15 68.2 °F 51.8 °F 30.20 in WNW 2.9 mph 11.0 mph 56% 0.00 in
01:30 68.2 °F 51.8 °F 30.19 in NW 6.0 mph 10.0 mph 56% 0.00 in
01:35 68.0 °F 51.8 °F 30.19 in ENE 4.9 mph 13.0 mph 56% 0.00 in
01:40 67.8 °F 51.6 °F 30.19 in WNW 2.9 mph 6.0 mph 56% 0.00 in
01:45 67.8 °F 51.1 °F 30.18 in WSW 6.9 mph 7.0 mph 55% 0.00 in
01:50 67.6 °F 50.9 °F 30.18 in NW 0.9 mph 8.0 mph 55% 0.00 in
01:55 67.5 °F 51.3 °F 30.18 in WSW 4.0 mph 6.0 mph 56% 0.00 in
02:00 67.3 °F 51.1 °F 30.18 in Calm   7.0 mph 56% 0.00 in
02:05 66.9 °F 51.6 °F 30.17 in East 2.0 mph 5.0 mph 58% 0.00 in
02:10 66.7 °F 51.4 °F 30.17 in WNW 2.0 mph 5.0 mph 58% 0.00 in
02:20 66.9 °F 51.6 °F 30.17 in WNW 2.9 mph 5.0 mph 58% 0.00 in
02:30 66.9 °F 51.6 °F 30.17 in NNW 2.9 mph 10.0 mph 58% 0.00 in
02:40 66.9 °F 52.2 °F 30.16 in WSW 4.0 mph 4.0 mph 59% 0.00 in
02:55 66.4 °F 52.2 °F 30.16 in Calm   4.0 mph 60% 0.00 in
03:00 66.4 °F 52.2 °F 30.15 in NW 2.9 mph 5.0 mph 60% 0.00 in
03:05 66.2 °F 52.0 °F 30.15 in West 4.0 mph 4.0 mph 60% 0.00 in
03:10 65.8 °F 52.0 °F 30.15 in ENE 0.9 mph 2.0 mph 61% 0.00 in
03:21 65.8 °F 52.0 °F 30.14 in NW 0.9 mph 3.0 mph 61% 0.00 in
03:26 65.7 °F 51.8 °F 30.14 in ENE 2.9 mph 4.0 mph 61% 0.00 in
03:31 65.7 °F 51.8 °F 30.14 in WNW 8.9 mph 11.0 mph 61% 0.00 in
03:36 65.8 °F 52.0 °F 30.14 in WSW 0.9 mph 6.0 mph 61% 0.00 in
03:41 65.8 °F 52.0 °F 30.14 in West 2.9 mph 5.0 mph 61% 0.00 in
03:46 65.8 °F 52.0 °F 30.14 in NW 2.0 mph 6.0 mph 61% 0.00 in
03:56 65.7 °F 51.8 °F 30.14 in WSW 0.9 mph 4.0 mph 61% 0.00 in
04:01 65.5 °F 52.2 °F 30.14 in WNW 2.0 mph 2.0 mph 62% 0.00 in
04:06 65.7 °F 52.3 °F 30.14 in ENE 0.9 mph 7.0 mph 62% 0.00 in
04:11 65.7 °F 52.3 °F 30.14 in WNW 6.0 mph 6.0 mph 62% 0.00 in
04:16 65.7 °F 52.3 °F 30.14 in ENE 4.0 mph 6.0 mph 62% 0.00 in
04:21 65.7 °F 52.3 °F 30.13 in West 0.9 mph 9.0 mph 62% 0.00 in
04:31 65.8 °F 52.5 °F 30.14 in WNW 4.9 mph 11.0 mph 62% 0.00 in
04:36 65.7 °F 52.3 °F 30.13 in WNW 4.0 mph 4.0 mph 62% 0.00 in
04:41 65.5 °F 52.2 °F 30.14 in SW 2.0 mph 11.0 mph 62% 0.00 in
04:56 64.8 °F 49.6 °F 30.14 in Calm   13.0 mph 58% 0.00 in
05:16 63.9 °F 47.3 °F 30.15 in East 4.9 mph 6.0 mph 55% 0.00 in
05:26 63.3 °F 47.3 °F 30.16 in NE 2.0 mph 3.0 mph 56% 0.00 in
05:31 63.1 °F 47.1 °F 30.16 in South 0.9 mph 3.0 mph 56% 0.00 in
05:41 62.8 °F 47.8 °F 30.16 in ENE 2.0 mph 4.0 mph 58% 0.00 in
05:46 62.6 °F 47.7 °F 30.16 in Calm   2.0 mph 58% 0.00 in
05:51 62.2 °F 47.7 °F 30.16 in South 0.9 mph 1.0 mph 59% 0.00 in
05:56 61.9 °F 47.5 °F 30.16 in ENE 2.0 mph 6.0 mph 59% 0.00 in
06:01 62.1 °F 47.5 °F 30.16 in WSW 0.9 mph 4.0 mph 59% 0.00 in
06:06 61.9 °F 47.5 °F 30.16 in West 4.0 mph 7.0 mph 59% 0.00 in
06:16 61.9 °F 47.8 °F 30.16 in Calm   4.0 mph 60% 0.00 in
06:21 61.9 °F 48.2 °F 30.16 in Calm   4.0 mph 61% 0.00 in
06:26 61.5 °F 48.4 °F 30.16 in ESE 2.0 mph 5.0 mph 62% 0.00 in
06:31 61.3 °F 47.8 °F 30.17 in West 2.9 mph 13.0 mph 61% 0.00 in
06:36 61.2 °F 47.1 °F 30.18 in WNW 4.0 mph 6.0 mph 60% 0.00 in
06:41 61.0 °F 46.9 °F 30.18 in West 2.0 mph 6.0 mph 60% 0.00 in
06:51 60.4 °F 46.4 °F 30.18 in West 4.0 mph 9.0 mph 60% 0.00 in
07:01 59.5 °F 46.0 °F 30.19 in SSW 4.0 mph 9.0 mph 61% 0.00 in
07:06 59.2 °F 45.7 °F 30.19 in NNW 0.9 mph 12.0 mph 61% 0.00 in
07:16 58.5 °F 45.5 °F 30.21 in WNW 2.9 mph 11.0 mph 62% 0.00 in
07:21 57.9 °F 45.3 °F 30.21 in WNW 4.0 mph 12.0 mph 63% 0.00 in
07:26 57.6 °F 45.1 °F 30.22 in WNW 0.9 mph 9.0 mph 63% 0.00 in
07:36 56.8 °F 44.4 °F 30.22 in West 4.0 mph 13.0 mph 63% 0.00 in
07:41 56.5 °F 44.1 °F 30.22 in WNW 6.0 mph 12.0 mph 63% 0.00 in
07:46 56.3 °F 43.5 °F 30.22 in WNW 0.9 mph 9.0 mph 62% 0.00 in
07:51 55.9 °F 43.2 °F 30.23 in WNW 8.9 mph 11.0 mph 62% 0.00 in
08:01 55.8 °F 43.0 °F 30.23 in West 0.9 mph 8.0 mph 62% 0.00 in
08:06 55.8 °F 42.4 °F 30.24 in WNW 2.9 mph 11.0 mph 61% 0.00 in
08:11 56.1 °F 42.8 °F 30.24 in SW 4.0 mph 9.0 mph 61% 0.00 in
08:21 55.9 °F 41.0 °F 30.24 in SSW 0.9 mph 11.0 mph 57% 0.00 in
08:26 55.4 °F 41.4 °F 30.25 in West 11.0 mph 15.0 mph 59% 0.00 in
08:36 54.9 °F 39.4 °F 30.26 in SSW 2.0 mph 13.0 mph 56% 0.00 in
08:41 54.9 °F 39.4 °F 30.26 in Calm   15.0 mph 56% 0.00 in
08:46 55.8 °F 40.3 °F 30.25 in NE 2.9 mph 7.0 mph 56% 0.00 in
08:51 56.7 °F 39.7 °F 30.26 in SW 4.9 mph 5.0 mph 53% 0.00 in
09:01 56.7 °F 39.7 °F 30.26 in WSW 4.9 mph 6.0 mph 53% 0.00 in
09:06 56.7 °F 39.2 °F 30.26 in West 4.0 mph 10.0 mph 52% 0.00 in
09:16 56.8 °F 39.4 °F 30.26 in Calm   6.0 mph 52% 0.00 in
09:31 56.5 °F 37.6 °F 30.26 in ESE 2.0 mph 10.0 mph 49% 0.00 in
09:36 56.8 °F 37.9 °F 30.26 in SE 4.0 mph 5.0 mph 49% 0.00 in
09:41 57.4 °F 38.3 °F 30.25 in West 4.9 mph 5.0 mph 49% 0.00 in
09:46 57.6 °F 37.4 °F 30.26 in WNW 6.0 mph 6.0 mph 47% 0.00 in
09:56 57.0 °F 37.0 °F 30.25 in WSW 6.9 mph 10.0 mph 47% 0.00 in
10:01 56.8 °F 36.3 °F 30.26 in SW 4.0 mph 10.0 mph 46% 0.00 in
10:16 56.8 °F 35.2 °F 30.27 in West 11.0 mph 13.0 mph 44% 0.00 in
10:26 56.5 °F 35.4 °F 30.28 in SW 4.0 mph 16.0 mph 45% 0.00 in
10:36 55.9 °F 35.4 °F 30.28 in ESE 4.0 mph 7.0 mph 46% 0.00 in
10:41 55.9 °F 34.3 °F 30.28 in SSE 4.9 mph 10.0 mph 44% 0.00 in
10:46 55.9 °F 34.3 °F 30.28 in SW 2.9 mph 10.0 mph 44% 0.00 in
10:51 55.8 °F 35.2 °F 30.28 in SSW 4.0 mph 12.0 mph 46% 0.00 in
11:01 55.8 °F 34.2 °F 30.29 in SE 2.0 mph 6.0 mph 44% 0.00 in
11:06 56.1 °F 33.3 °F 30.29 in SE 2.0 mph 8.0 mph 42% 0.00 in
11:16 56.1 °F 34.0 °F 30.29 in SSW 4.0 mph 17.0 mph 43% 0.00 in
11:30 56.1 °F 34.5 °F 30.30 in South 2.9 mph 11.0 mph 44% 0.00 in
11:36 56.7 °F 36.7 °F 30.30 in South 2.9 mph 5.0 mph 47% 0.00 in
11:46 56.7 °F 35.6 °F 30.30 in NE 4.0 mph 5.0 mph 45% 0.00 in
11:51 57.0 °F 34.7 °F 30.31 in SE 4.0 mph 6.0 mph 43% 0.00 in
11:56 56.8 °F 34.5 °F 30.31 in ESE 2.9 mph 9.0 mph 43% 0.00 in
12:01 56.5 °F 34.3 °F 30.31 in ESE 2.0 mph 9.0 mph 43% 0.00 in
12:06 56.7 °F 36.1 °F 30.31 in SW 17.0 mph 22.0 mph 46% 0.00 in
12:16 56.3 °F 35.8 °F 30.32 in West 10.1 mph 17.0 mph 46% 0.00 in
12:21 56.3 °F 34.7 °F 30.32 in South 6.0 mph 14.0 mph 44% 0.00 in
12:26 56.1 °F 35.6 °F 30.32 in SSW 2.0 mph 15.0 mph 46% 0.00 in
12:31 56.5 °F 36.5 °F 30.32 in Calm   15.0 mph 47% 0.00 in
12:36 56.5 °F 35.4 °F 30.32 in NW 4.9 mph 17.0 mph 45% 0.00 in
12:41 56.3 °F 35.2 °F 30.32 in West 4.9 mph 15.0 mph 45% 0.00 in
12:46 56.5 °F 35.4 °F 30.32 in West 4.9 mph 11.0 mph 45% 0.00 in
12:51 56.5 °F 36.5 °F 30.33 in SSW 4.0 mph 13.0 mph 47% 0.00 in
12:56 56.7 °F 36.1 °F 30.33 in West 6.0 mph 11.0 mph 46% 0.00 in
13:01 56.7 °F 35.6 °F 30.33 in WSW 2.9 mph 13.0 mph 45% 0.00 in
13:06 56.7 °F 36.1 °F 30.33 in West 6.0 mph 18.0 mph 46% 0.00 in
WheeWeather.com
Compliments of Weather Underground - 2.75 mb